Time;durP1;ratioP1;P1;durP2;ratioP2;P2;SDS_P1;SDS_P2;PMS_P1;PMS_P2;Temp;Humidity;BMP_temperature;BMP_pressure;BME280_temperature;BME280_humidity;BME280_pressure;Samples;Min_cycle;Max_cycle;Signal;HPM_P1;HPM_P2
2022/03/04 00:01:03;;;;;;;3.80;2.60;;;;;;;;;;5071973;28;20044;-71
2022/03/04 00:03:29;;;;;;;4.18;2.70;;;;;;;;;;5090346;28;20067;-71
2022/03/04 00:05:56;;;;;;;4.45;3.00;;;;;;;;;;5072501;28;20131;-71
2022/03/04 00:08:22;;;;;;;4.38;2.83;;;;;;;;;;5072385;28;20139;-71
2022/03/04 00:10:48;;;;;;;4.63;3.13;;;;;;;;;;5090556;28;20098;-71
2022/03/04 00:13:14;;;;;;;3.88;2.90;;;;;;;;;;5090116;28;20043;-71
2022/03/04 00:15:40;;;;;;;3.90;2.53;;;;;;;;;;5089743;28;20498;-71
2022/03/04 00:18:06;;;;;;;4.25;2.70;;;;;;;;;;5090413;28;20044;-71
2022/03/04 00:20:32;;;;;;;4.28;2.83;;;;;;;;;;5090082;28;20131;-71
2022/03/04 00:22:58;;;;;;;3.65;2.58;;;;;;;;;;5071863;28;20088;-72
2022/03/04 00:25:24;;;;;;;4.82;2.70;;;;;;;;;;5090150;28;20043;-71
2022/03/04 00:27:50;;;;;;;4.72;2.50;;;;;;;;;;5071731;28;20100;-71
2022/03/04 00:30:17;;;;;;;4.70;2.78;;;;;;;;;;5089557;28;20116;-71
2022/03/04 00:32:43;;;;;;;5.03;3.50;;;;;;;;;;5055213;28;20546;-71
2022/03/04 00:35:09;;;;;;;4.22;2.70;;;;;;;;;;5090003;28;20376;-71
2022/03/04 00:37:35;;;;;;;3.90;2.58;;;;;;;;;;5089698;28;20056;-71
2022/03/04 00:40:02;;;;;;;4.35;2.70;;;;;;;;;;5089397;28;20055;-71
2022/03/04 00:42:28;;;;;;;4.03;2.40;;;;;;;;;;5088989;28;20480;-71
2022/03/04 00:44:54;;;;;;;6.75;3.53;;;;;;;;;;5089138;28;20131;-70
2022/03/04 00:47:20;;;;;;;3.70;2.75;;;;;;;;;;5089049;28;20047;-70
2022/03/04 00:49:46;;;;;;;4.10;2.45;;;;;;;;;;5088879;28;20048;-71
2022/03/04 00:52:12;;;;;;;4.03;2.83;;;;;;;;;;5089112;28;20369;-71
2022/03/04 00:54:38;;;;;;;3.60;2.63;;;;;;;;;;5054390;28;20039;-71
2022/03/04 00:57:04;;;;;;;3.80;2.58;;;;;;;;;;5089735;28;20668;-71
2022/03/04 00:59:30;;;;;;;4.28;2.80;;;;;;;;;;5089659;28;20048;-71
2022/03/04 01:01:56;;;;;;;4.28;2.63;;;;;;;;;;5089000;28;20085;-70
2022/03/04 01:04:22;;;;;;;3.95;2.58;;;;;;;;;;5089546;28;20044;-71
2022/03/04 01:06:48;;;;;;;3.55;2.50;;;;;;;;;;5070886;28;20044;-71
2022/03/04 01:09:15;;;;;;;4.95;2.90;;;;;;;;;;5089451;28;20036;-71
2022/03/04 01:11:41;;;;;;;3.47;2.85;;;;;;;;;;5089493;28;20541;-70
2022/03/04 01:14:07;;;;;;;4.45;2.67;;;;;;;;;;5088876;28;20042;-71
2022/03/04 01:16:34;;;;;;;5.13;2.63;;;;;;;;;;5070525;28;20485;-71
2022/03/04 01:19:01;;;;;;;3.45;2.30;;;;;;;;;;5070481;28;20047;-71
2022/03/04 01:21:27;;;;;;;3.40;2.42;;;;;;;;;;5088862;28;20044;-71
2022/03/04 01:23:53;;;;;;;3.35;2.42;;;;;;;;;;5089396;28;20055;-71
2022/03/04 01:26:20;;;;;;;3.40;2.20;;;;;;;;;;5070873;28;20044;-70
2022/03/04 01:28:46;;;;;;;3.83;2.50;;;;;;;;;;5089041;28;20044;-70
2022/03/04 01:31:12;;;;;;;3.35;2.47;;;;;;;;;;5070273;28;20143;-69
2022/03/04 01:33:39;;;;;;;7.82;3.00;;;;;;;;;;5088672;28;20437;-71
2022/03/04 01:36:05;;;;;;;5.20;3.10;;;;;;;;;;5070464;28;20450;-71
2022/03/04 01:38:31;;;;;;;6.80;3.08;;;;;;;;;;5088585;28;20427;-71
2022/03/04 01:40:57;;;;;;;5.38;2.78;;;;;;;;;;5070581;28;20043;-71
2022/03/04 01:43:23;;;;;;;5.03;2.45;;;;;;;;;;5087895;28;20442;-70
2022/03/04 01:45:50;;;;;;;6.15;2.65;;;;;;;;;;5088449;28;20463;-71
2022/03/04 01:48:17;;;;;;;4.38;2.80;;;;;;;;;;5070568;28;20478;-71
2022/03/04 01:50:43;;;;;;;3.60;2.60;;;;;;;;;;5088115;28;20243;-71
2022/03/04 01:53:09;;;;;;;10.63;2.90;;;;;;;;;;5070365;28;20063;-71
2022/03/04 01:55:35;;;;;;;3.72;2.30;;;;;;;;;;5053361;28;20056;-72
2022/03/04 01:58:01;;;;;;;3.63;2.30;;;;;;;;;;5088324;28;20066;-72
2022/03/04 02:00:27;;;;;;;4.80;2.67;;;;;;;;;;5070625;28;20501;-71
2022/03/04 02:02:57;;;;;;;4.45;2.40;;;;;;;;;;5088268;28;20377;-70
2022/03/04 02:05:23;;;;;;;5.60;2.67;;;;;;;;;;5088121;28;20455;-70
2022/03/04 02:07:49;;;;;;;4.10;3.03;;;;;;;;;;5088368;28;20044;-70
2022/03/04 02:10:15;;;;;;;6.38;2.60;;;;;;;;;;5088316;28;20040;-70
2022/03/04 02:12:41;;;;;;;5.05;2.50;;;;;;;;;;5070110;28;20091;-70
2022/03/04 02:15:08;;;;;;;3.90;2.72;;;;;;;;;;5069194;28;20142;-70
2022/03/04 02:17:34;;;;;;;4.25;2.70;;;;;;;;;;5088311;28;20084;-70
2022/03/04 02:20:03;;;;;;;4.20;2.83;;;;;;;;;;5088323;28;20040;-70
2022/03/04 02:22:29;;;;;;;3.47;2.40;;;;;;;;;;5088267;28;20051;-70
2022/03/04 02:24:55;;;;;;;5.00;2.50;;;;;;;;;;5070161;28;20658;-70
2022/03/04 02:27:21;;;;;;;3.80;2.30;;;;;;;;;;5088299;28;20063;-70
2022/03/04 02:29:47;;;;;;;6.38;2.40;;;;;;;;;;5069179;28;20051;-70
2022/03/04 02:32:13;;;;;;;4.95;2.58;;;;;;;;;;5087994;28;20058;-70
2022/03/04 02:34:39;;;;;;;5.45;2.75;;;;;;;;;;5088530;28;20106;-70
2022/03/04 02:37:06;;;;;;;3.72;2.20;;;;;;;;;;5053166;28;20060;-70
2022/03/04 02:39:32;;;;;;;3.78;2.80;;;;;;;;;;5089759;28;20040;-70
2022/03/04 02:41:58;;;;;;;3.47;2.47;;;;;;;;;;5092153;28;20100;-70
2022/03/04 02:44:24;;;;;;;4.18;2.63;;;;;;;;;;5091418;28;20418;-70
2022/03/04 02:46:50;;;;;;;4.30;2.65;;;;;;;;;;5092097;28;20058;-71
2022/03/04 02:49:16;;;;;;;4.82;3.20;;;;;;;;;;5092047;28;20477;-71
2022/03/04 02:51:42;;;;;;;3.40;2.30;;;;;;;;;;5073661;28;20109;-72
2022/03/04 02:54:08;;;;;;;4.13;2.55;;;;;;;;;;5091510;28;20117;-71
2022/03/04 02:56:34;;;;;;;3.22;2.45;;;;;;;;;;5091255;28;20044;-71
2022/03/04 02:59:00;;;;;;;3.00;2.30;;;;;;;;;;5091955;28;20329;-72
2022/03/04 03:01:26;;;;;;;3.33;2.38;;;;;;;;;;5073556;28;20051;-71
2022/03/04 03:03:52;;;;;;;4.18;2.58;;;;;;;;;;5056771;28;20332;-71
2022/03/04 03:06:18;;;;;;;3.58;2.58;;;;;;;;;;5091448;28;20127;-70
2022/03/04 03:08:47;;;;;;;3.67;2.58;;;;;;;;;;5091619;28;20075;-69
2022/03/04 03:11:13;;;;;;;3.78;2.20;;;;;;;;;;5073434;28;20044;-70
2022/03/04 03:13:40;;;;;;;3.42;2.22;;;;;;;;;;5091184;28;20144;-70
2022/03/04 03:16:06;;;;;;;4.30;2.38;;;;;;;;;;5091062;28;20044;-69
2022/03/04 03:18:32;;;;;;;2.90;2.20;;;;;;;;;;5091871;28;20052;-70
2022/03/04 03:20:59;;;;;;;4.88;2.70;;;;;;;;;;5073096;28;20051;-69
2022/03/04 03:23:25;;;;;;;5.70;2.47;;;;;;;;;;5090892;28;20044;-71
2022/03/04 03:25:51;;;;;;;3.85;2.13;;;;;;;;;;5073142;28;20056;-71
2022/03/04 03:28:17;;;;;;;4.20;2.40;;;;;;;;;;5073140;28;20070;-71
2022/03/04 03:30:43;;;;;;;3.55;2.30;;;;;;;;;;5090801;28;20097;-71
2022/03/04 03:33:09;;;;;;;4.05;2.30;;;;;;;;;;5090084;28;20051;-71
2022/03/04 03:35:35;;;;;;;3.95;2.42;;;;;;;;;;5089899;28;20095;-71
2022/03/04 03:38:01;;;;;;;3.65;2.28;;;;;;;;;;5055080;28;20044;-71
2022/03/04 03:40:27;;;;;;;3.58;2.45;;;;;;;;;;5089376;28;20071;-71
2022/03/04 03:42:53;;;;;;;2.95;2.30;;;;;;;;;;5089832;28;20051;-71
2022/03/04 03:45:19;;;;;;;3.97;2.30;;;;;;;;;;5089574;28;20109;-71
2022/03/04 03:47:45;;;;;;;3.65;2.33;;;;;;;;;;5089970;28;20079;-71
2022/03/04 03:50:12;;;;;;;5.22;2.30;;;;;;;;;;5089202;28;20044;-71
2022/03/04 03:52:38;;;;;;;3.25;2.00;;;;;;;;;;5089392;28;20063;-71
2022/03/04 03:55:05;;;;;;;3.13;2.22;;;;;;;;;;5071808;28;20060;-70
2022/03/04 03:57:31;;;;;;;3.40;2.20;;;;;;;;;;5089701;28;20040;-69
2022/03/04 03:59:57;;;;;;;7.70;2.53;;;;;;;;;;5089681;28;20188;-72
2022/03/04 04:02:23;;;;;;;8.43;2.58;;;;;;;;;;5071113;28;20082;-72
2022/03/04 04:04:49;;;;;;;7.47;2.42;;;;;;;;;;5054059;28;20058;-71
2022/03/04 04:07:15;;;;;;;5.72;2.55;;;;;;;;;;5071194;28;20040;-72
2022/03/04 04:09:41;;;;;;;4.18;2.20;;;;;;;;;;5054623;28;20076;-71
2022/03/04 04:12:07;;;;;;;5.53;2.50;;;;;;;;;;5054657;28;20436;-71
2022/03/04 04:14:34;;;;;;;3.90;2.40;;;;;;;;;;5070332;28;20044;-71
2022/03/04 04:17:01;;;;;;;5.07;2.80;;;;;;;;;;5054522;28;20048;-71
2022/03/04 04:19:27;;;;;;;4.15;2.53;;;;;;;;;;5089345;28;20122;-71
2022/03/04 04:21:53;;;;;;;4.70;2.60;;;;;;;;;;5070964;28;20192;-71
2022/03/04 04:24:20;;;;;;;4.80;2.42;;;;;;;;;;5088734;28;20628;-71
2022/03/04 04:26:46;;;;;;;4.47;2.67;;;;;;;;;;5089130;28;20139;-71
2022/03/04 04:29:12;;;;;;;3.33;2.22;;;;;;;;;;5089022;28;20040;-71
2022/03/04 04:31:39;;;;;;;3.47;2.25;;;;;;;;;;5050054;28;1106755;-74
2022/03/04 04:34:05;;;;;;;3.72;2.30;;;;;;;;;;5071748;28;20083;-71
2022/03/04 04:36:31;;;;;;;4.20;2.75;;;;;;;;;;5090231;28;20332;-71
2022/03/04 04:38:58;;;;;;;3.92;2.60;;;;;;;;;;5071564;28;20056;-71
2022/03/04 04:41:25;;;;;;;5.63;2.72;;;;;;;;;;5089992;28;20054;-70
2022/03/04 04:43:51;;;;;;;3.58;2.50;;;;;;;;;;5071314;28;20506;-70
2022/03/04 04:46:17;;;;;;;3.78;2.50;;;;;;;;;;5090051;28;20044;-70
2022/03/04 04:48:43;;;;;;;4.55;2.70;;;;;;;;;;5089417;28;20545;-70
2022/03/04 04:51:09;;;;;;;3.20;2.50;;;;;;;;;;5054880;28;20054;-70
2022/03/04 04:53:35;;;;;;;4.88;2.35;;;;;;;;;;5071382;28;20040;-70
2022/03/04 04:56:02;;;;;;;4.47;2.47;;;;;;;;;;5089587;28;20075;-71
2022/03/04 04:58:28;;;;;;;5.20;2.70;;;;;;;;;;5089737;28;20044;-71
2022/03/04 05:00:54;;;;;;;5.88;2.53;;;;;;;;;;5054600;28;20143;-70
2022/03/04 05:03:24;;;;;;;4.93;2.55;;;;;;;;;;5070074;28;20081;-70
2022/03/04 05:05:50;;;;;;;4.57;2.50;;;;;;;;;;5089582;28;20097;-70
2022/03/04 05:08:17;;;;;;;4.40;2.45;;;;;;;;;;5089277;28;20055;-70
2022/03/04 05:10:43;;;;;;;3.90;2.30;;;;;;;;;;5089376;28;20043;-70
2022/03/04 05:13:11;;;;;;;3.35;2.10;;;;;;;;;;5088734;28;20047;-70
2022/03/04 05:15:37;;;;;;;5.28;2.20;;;;;;;;;;5070506;28;20055;-70
2022/03/04 05:18:03;;;;;;;3.35;2.22;;;;;;;;;;5070968;28;20039;-70
2022/03/04 05:20:29;;;;;;;4.05;2.45;;;;;;;;;;5089440;28;20366;-70
2022/03/04 05:22:55;;;;;;;4.53;2.53;;;;;;;;;;5089020;28;20044;-70
2022/03/04 05:25:21;;;;;;;3.15;2.40;;;;;;;;;;5071173;28;20047;-70
2022/03/04 05:27:47;;;;;;;4.38;2.88;;;;;;;;;;5053706;28;20452;-70
2022/03/04 05:30:14;;;;;;;4.13;2.75;;;;;;;;;;5089250;28;20463;-70
2022/03/04 05:32:40;;;;;;;3.95;2.63;;;;;;;;;;5070544;28;20196;-70
2022/03/04 05:35:06;;;;;;;3.25;2.20;;;;;;;;;;5088863;28;20052;-70
2022/03/04 05:37:33;;;;;;;4.15;2.60;;;;;;;;;;5070506;28;20051;-71
2022/03/04 05:39:59;;;;;;;4.70;2.35;;;;;;;;;;5070445;28;20381;-70
2022/03/04 05:42:25;;;;;;;3.00;2.30;;;;;;;;;;5088379;28;20044;-69
2022/03/04 05:44:52;;;;;;;4.13;2.75;;;;;;;;;;5070545;28;20405;-69
2022/03/04 05:47:18;;;;;;;4.68;2.70;;;;;;;;;;5070498;28;20059;-70
2022/03/04 05:49:44;;;;;;;3.33;2.40;;;;;;;;;;5088616;28;20047;-70
2022/03/04 05:52:10;;;;;;;4.63;2.72;;;;;;;;;;5070242;28;20047;-71
2022/03/04 05:54:37;;;;;;;2.70;2.00;;;;;;;;;;5070067;28;20441;-70
2022/03/04 05:57:03;;;;;;;3.67;2.55;;;;;;;;;;5070550;28;20048;-70
2022/03/04 05:59:29;;;;;;;7.43;2.30;;;;;;;;;;5088443;28;20048;-70
2022/03/04 06:01:55;;;;;;;5.38;2.30;;;;;;;;;;5087214;28;20447;-69
2022/03/04 06:04:22;;;;;;;4.63;2.55;;;;;;;;;;5088383;28;20039;-69
2022/03/04 06:06:48;;;;;;;4.47;2.70;;;;;;;;;;5088385;28;20047;-71
2022/03/04 06:09:14;;;;;;;6.43;2.70;;;;;;;;;;5088364;28;20493;-70
2022/03/04 06:11:40;;;;;;;4.78;2.75;;;;;;;;;;5070167;28;20044;-70
2022/03/04 06:14:06;;;;;;;4.70;2.40;;;;;;;;;;5087926;28;20134;-72
2022/03/04 06:16:33;;;;;;;6.85;3.20;;;;;;;;;;5069947;28;20048;-72
2022/03/04 06:18:59;;;;;;;4.05;2.40;;;;;;;;;;5070375;28;20355;-72
2022/03/04 06:21:25;;;;;;;4.57;2.65;;;;;;;;;;5088702;28;20079;-72
2022/03/04 06:23:52;;;;;;;3.88;2.63;;;;;;;;;;5054253;28;20047;-72
2022/03/04 06:26:20;;;;;;;3.90;2.80;;;;;;;;;;5069788;28;20056;-72
2022/03/04 06:28:46;;;;;;;4.10;2.38;;;;;;;;;;5070190;28;20584;-73
2022/03/04 06:31:12;;;;;;;4.65;2.72;;;;;;;;;;5088446;28;20048;-73
2022/03/04 06:33:40;;;;;;;4.88;3.05;;;;;;;;;;5050083;28;20056;-72
2022/03/04 06:36:08;;;;;;;4.07;2.85;;;;;;;;;;5046947;28;20060;-71
2022/03/04 06:38:36;;;;;;;4.78;2.83;;;;;;;;;;5047485;28;20125;-72
2022/03/04 06:41:03;;;;;;;3.28;2.35;;;;;;;;;;5046414;28;20083;-72
2022/03/04 06:43:30;;;;;;;5.50;2.88;;;;;;;;;;5047631;28;20041;-72
2022/03/04 06:45:56;;;;;;;6.13;2.90;;;;;;;;;;5046214;28;20407;-71
2022/03/04 06:48:22;;;;;;;8.52;2.58;;;;;;;;;;5046003;28;20053;-68
2022/03/04 06:50:51;;;;;;;5.25;2.90;;;;;;;;;;5047715;28;20056;-68
2022/03/04 06:53:18;;;;;;;5.70;2.67;;;;;;;;;;5047296;28;20052;-69
2022/03/04 06:55:44;;;;;;;4.32;2.90;;;;;;;;;;5046101;28;20376;-69
2022/03/04 06:58:10;;;;;;;3.70;2.42;;;;;;;;;;5046561;28;20125;-69
2022/03/04 07:00:38;;;;;;;7.40;2.95;;;;;;;;;;5029391;28;20076;-68
2022/03/04 07:03:04;;;;;;;7.75;3.88;;;;;;;;;;5046417;28;20421;-68
2022/03/04 07:05:30;;;;;;;7.18;3.10;;;;;;;;;;5047502;28;20041;-68
2022/03/04 07:07:56;;;;;;;4.72;3.13;;;;;;;;;;5056634;28;20048;-68
2022/03/04 07:10:23;;;;;;;4.80;3.05;;;;;;;;;;5045104;28;20037;-69
2022/03/04 07:12:49;;;;;;;4.15;2.70;;;;;;;;;;5045814;28;20467;-68
2022/03/04 07:15:15;;;;;;;4.57;2.67;;;;;;;;;;5027781;28;20529;-67
2022/03/04 07:17:41;;;;;;;5.28;2.70;;;;;;;;;;5027705;28;20061;-68
2022/03/04 07:20:08;;;;;;;4.22;3.03;;;;;;;;;;5009448;28;20068;-68
2022/03/04 07:22:37;;;;;;;4.30;2.58;;;;;;;;;;5026936;28;20143;-66
2022/03/04 07:25:07;;;;;;;5.35;2.60;;;;;;;;;;5027059;28;20399;-70
2022/03/04 07:27:33;;;;;;;4.63;3.00;;;;;;;;;;5036368;28;20407;-69
2022/03/04 07:30:00;;;;;;;9.57;3.22;;;;;;;;;;5040503;28;20517;-69
2022/03/04 07:32:26;;;;;;;3.38;2.60;;;;;;;;;;5052512;28;20540;-70
2022/03/04 07:34:52;;;;;;;5.18;2.88;;;;;;;;;;5051970;28;20477;-69
2022/03/04 07:37:18;;;;;;;5.43;3.22;;;;;;;;;;5070607;28;20049;-70
2022/03/04 07:39:44;;;;;;;7.78;2.67;;;;;;;;;;5070769;28;20041;-69
2022/03/04 07:42:10;;;;;;;4.15;2.95;;;;;;;;;;5073030;28;20794;-68
2022/03/04 07:44:36;;;;;;;6.30;3.20;;;;;;;;;;5090830;28;20138;-68
2022/03/04 07:47:03;;;;;;;6.28;3.08;;;;;;;;;;5090108;28;20142;-68
2022/03/04 07:49:29;;;;;;;6.43;3.67;;;;;;;;;;5090621;28;20395;-69
2022/03/04 07:51:55;;;;;;;10.52;4.28;;;;;;;;;;5081247;28;20123;-68
2022/03/04 07:54:21;;;;;;;7.10;4.63;;;;;;;;;;5090812;28;20044;-70
2022/03/04 07:56:48;;;;;;;13.07;5.07;;;;;;;;;;5090799;28;20051;-69
2022/03/04 07:59:14;;;;;;;9.88;4.20;;;;;;;;;;5090442;28;20094;-69
2022/03/04 08:01:40;;;;;;;12.50;5.20;;;;;;;;;;5070642;28;20072;-68
2022/03/04 08:04:06;;;;;;;9.55;5.60;;;;;;;;;;5072641;28;20495;-69
2022/03/04 08:06:32;;;;;;;18.63;5.95;;;;;;;;;;5072360;28;20200;-68
2022/03/04 08:08:58;;;;;;;12.38;5.97;;;;;;;;;;5089765;28;20399;-69
2022/03/04 08:11:25;;;;;;;10.82;5.93;;;;;;;;;;5071748;28;20059;-69
2022/03/04 08:13:51;;;;;;;11.27;5.68;;;;;;;;;;5089795;28;20113;-67
2022/03/04 08:16:17;;;;;;;9.13;6.20;;;;;;;;;;5090505;28;20051;-72
2022/03/04 08:18:43;;;;;;;10.23;6.65;;;;;;;;;;5090175;28;20527;-73
2022/03/04 08:21:11;;;;;;;14.98;8.10;;;;;;;;;;5089744;28;20048;-67
2022/03/04 08:23:37;;;;;;;15.63;8.77;;;;;;;;;;5090010;28;20479;-72
2022/03/04 08:26:04;;;;;;;13.15;9.07;;;;;;;;;;5072383;28;20499;-72
2022/03/04 08:28:33;;;;;;;13.27;9.52;;;;;;;;;;5088786;28;20580;-72
2022/03/04 08:30:59;;;;;;;18.67;9.75;;;;;;;;;;5089607;28;20040;-72
2022/03/04 08:33:27;;;;;;;15.00;10.25;;;;;;;;;;5089547;28;20052;-72
2022/03/04 08:35:53;;;;;;;12.90;10.00;;;;;;;;;;5089371;28;20060;-72
2022/03/04 08:38:19;;;;;;;13.65;9.85;;;;;;;;;;5089787;28;20044;-72
2022/03/04 08:40:46;;;;;;;16.02;10.05;;;;;;;;;;5090478;28;20115;-72
2022/03/04 08:43:12;;;;;;;14.65;10.25;;;;;;;;;;5090411;28;20060;-73
2022/03/04 08:45:38;;;;;;;16.25;10.45;;;;;;;;;;5067356;28;20493;-72
2022/03/04 08:48:06;;;;;;;13.10;9.73;;;;;;;;;;5072420;28;20044;-72
2022/03/04 08:50:33;;;;;;;13.10;9.50;;;;;;;;;;5080052;28;20040;-73
2022/03/04 08:53:01;;;;;;;13.05;9.43;;;;;;;;;;5069979;28;20041;-72
2022/03/04 08:55:30;;;;;;;14.48;9.77;;;;;;;;;;5070035;28;20049;-73
2022/03/04 08:57:56;;;;;;;15.38;9.48;;;;;;;;;;5068962;28;20040;-73
2022/03/04 09:00:23;;;;;;;12.90;9.20;;;;;;;;;;5069481;28;20105;-73
2022/03/04 09:02:49;;;;;;;13.63;9.27;;;;;;;;;;5069971;28;20143;-73
2022/03/04 09:05:15;;;;;;;11.68;8.90;;;;;;;;;;5078082;28;20044;-72
2022/03/04 09:07:42;;;;;;;14.40;9.30;;;;;;;;;;5089612;28;20048;-72
2022/03/04 09:10:08;;;;;;;14.55;8.93;;;;;;;;;;5071941;28;20138;-72
2022/03/04 09:12:35;;;;;;;12.10;9.13;;;;;;;;;;5089744;28;20536;-72
2022/03/04 09:15:01;;;;;;;13.35;8.68;;;;;;;;;;5089964;28;20048;-72
2022/03/04 09:17:28;;;;;;;11.18;8.18;;;;;;;;;;5089846;28;20067;-72
2022/03/04 09:19:54;;;;;;;11.45;8.00;;;;;;;;;;5089489;28;20417;-72
2022/03/04 09:22:20;;;;;;;11.73;8.10;;;;;;;;;;5089481;28;20501;-71
2022/03/04 09:24:46;;;;;;;10.93;7.20;;;;;;;;;;5089727;28;20523;-72
2022/03/04 09:27:12;;;;;;;9.20;7.00;;;;;;;;;;5089579;28;20051;-73
2022/03/04 09:29:38;;;;;;;9.77;7.25;;;;;;;;;;5089653;28;20199;-73
2022/03/04 09:32:05;;;;;;;9.82;7.30;;;;;;;;;;5089565;28;20051;-72
2022/03/04 09:34:31;;;;;;;11.52;7.93;;;;;;;;;;5088785;28;20097;-72
2022/03/04 09:36:57;;;;;;;10.20;7.10;;;;;;;;;;5089094;28;20040;-72
2022/03/04 09:39:23;;;;;;;8.98;6.82;;;;;;;;;;5071311;28;20129;-72
2022/03/04 09:41:50;;;;;;;10.18;6.93;;;;;;;;;;5089429;28;20044;-73
2022/03/04 09:44:16;;;;;;;8.75;6.57;;;;;;;;;;5070476;28;20509;-72
2022/03/04 09:46:43;;;;;;;9.95;6.75;;;;;;;;;;5089133;28;20485;-72
2022/03/04 09:49:10;;;;;;;10.13;6.95;;;;;;;;;;5054048;28;20055;-72
2022/03/04 09:51:37;;;;;;;9.32;6.63;;;;;;;;;;5070734;28;20554;-72
2022/03/04 09:54:03;;;;;;;9.65;7.05;;;;;;;;;;5089298;28;20048;-73
2022/03/04 09:56:29;;;;;;;8.30;6.13;;;;;;;;;;5054237;28;20160;-72
2022/03/04 09:58:55;;;;;;;9.07;6.78;;;;;;;;;;5088638;28;20036;-72
2022/03/04 10:01:21;;;;;;;9.85;6.82;;;;;;;;;;5087261;28;20048;-72
2022/03/04 10:03:49;;;;;;;8.20;5.82;;;;;;;;;;5088502;28;20054;-72
2022/03/04 10:06:16;;;;;;;10.82;6.97;;;;;;;;;;5089214;28;20047;-72
2022/03/04 10:08:44;;;;;;;9.65;6.93;;;;;;;;;;5070435;28;20052;-72
2022/03/04 10:11:11;;;;;;;8.77;6.28;;;;;;;;;;5070466;28;20098;-72
2022/03/04 10:13:41;;;;;;;8.52;6.20;;;;;;;;;;5053395;28;20047;-72
2022/03/04 10:16:07;;;;;;;8.07;5.97;;;;;;;;;;5088964;28;20493;-73
2022/03/04 10:18:34;;;;;;;8.30;5.70;;;;;;;;;;5055365;28;20083;-69
2022/03/04 10:21:00;;;;;;;9.40;6.65;;;;;;;;;;5052830;28;20081;-68
2022/03/04 10:23:26;;;;;;;7.90;5.93;;;;;;;;;;5070033;28;20083;-70
2022/03/04 10:25:57;;;;;;;8.18;6.10;;;;;;;;;;5088767;28;20040;-68
2022/03/04 10:28:24;;;;;;;6.47;5.05;;;;;;;;;;5087789;28;20063;-68
2022/03/04 10:30:51;;;;;;;7.00;5.25;;;;;;;;;;5088340;28;20418;-67
2022/03/04 10:33:22;;;;;;;7.55;5.47;;;;;;;;;;5066141;28;20067;-67
2022/03/04 10:36:06;;;;;;;7.57;5.38;;;;;;;;;;5068574;28;20075;-68
2022/03/04 10:38:32;;;;;;;8.13;5.95;;;;;;;;;;5068028;28;20576;-67
2022/03/04 10:40:58;;;;;;;6.97;5.10;;;;;;;;;;5068484;28;20056;-68
2022/03/04 10:43:30;;;;;;;8.40;5.20;;;;;;;;;;5066659;28;20044;-68
2022/03/04 10:46:03;;;;;;;8.23;4.90;;;;;;;;;;5066816;28;20465;-68
2022/03/04 10:48:30;;;;;;;7.05;4.82;;;;;;;;;;5068432;28;20047;-68
2022/03/04 10:50:57;;;;;;;7.85;5.30;;;;;;;;;;5066239;28;20394;-68
2022/03/04 10:53:24;;;;;;;8.18;4.97;;;;;;;;;;5066455;28;20124;-67
2022/03/04 10:55:51;;;;;;;7.15;4.93;;;;;;;;;;5067685;28;20817;-67
2022/03/04 10:58:18;;;;;;;7.05;4.65;;;;;;;;;;5067547;28;20451;-67
2022/03/04 11:00:45;;;;;;;6.78;4.65;;;;;;;;;;5069440;28;20505;-67
2022/03/04 11:03:16;;;;;;;6.18;4.53;;;;;;;;;;5071587;28;20469;-67
2022/03/04 11:05:42;;;;;;;6.22;4.35;;;;;;;;;;5072096;28;20101;-67
2022/03/04 11:08:09;;;;;;;5.93;4.03;;;;;;;;;;5071692;28;20040;-67
2022/03/04 11:10:35;;;;;;;5.57;4.10;;;;;;;;;;5071728;28;20394;-66
2022/03/04 11:13:03;;;;;;;7.43;4.53;;;;;;;;;;5071118;28;20049;-68
2022/03/04 11:15:30;;;;;;;8.30;4.35;;;;;;;;;;5070911;28;20102;-69
2022/03/04 11:17:56;;;;;;;8.60;4.57;;;;;;;;;;5070036;28;20049;-69
2022/03/04 11:20:22;;;;;;;5.40;4.00;;;;;;;;;;5071270;28;20033;-68
2022/03/04 11:22:51;;;;;;;5.00;3.95;;;;;;;;;;5070864;28;20048;-67
2022/03/04 11:25:17;;;;;;;5.75;4.07;;;;;;;;;;5071124;28;20371;-67
2022/03/04 11:27:47;;;;;;;5.65;3.90;;;;;;;;;;5070010;28;20044;-67
2022/03/04 11:30:34;;;;;;;5.65;4.05;;;;;;;;;;5070036;28;20046;-68
2022/03/04 11:33:03;;;;;;;5.68;4.10;;;;;;;;;;5082411;28;20063;-67
2022/03/04 11:35:42;;;;;;;5.80;3.80;;;;;;;;;;5090728;28;20647;-67
2022/03/04 11:38:08;;;;;;;5.72;3.60;;;;;;;;;;5091180;28;20048;-67
2022/03/04 11:40:35;;;;;;;5.15;4.00;;;;;;;;;;5090916;28;20050;-67
2022/03/04 11:43:06;;;;;;;5.72;4.10;;;;;;;;;;5090380;28;20474;-67
2022/03/04 11:45:33;;;;;;;6.80;3.65;;;;;;;;;;5072554;28;20048;-67
2022/03/04 11:48:05;;;;;;;6.05;3.88;;;;;;;;;;5072984;28;20519;-68
2022/03/04 11:50:36;;;;;;;6.05;3.80;;;;;;;;;;5073752;28;20055;-67
2022/03/04 11:53:12;;;;;;;5.93;3.50;;;;;;;;;;5090854;28;20128;-67
2022/03/04 11:55:39;;;;;;;6.00;3.70;;;;;;;;;;5072787;28;20065;-67
2022/03/04 11:58:05;;;;;;;5.88;3.75;;;;;;;;;;5091019;28;20120;-67
2022/03/04 12:00:33;;;;;;;6.78;4.20;;;;;;;;;;5090979;28;20109;-68
2022/03/04 12:03:00;;;;;;;6.13;3.88;;;;;;;;;;5057043;28;20043;-68
2022/03/04 12:05:30;;;;;;;5.55;3.72;;;;;;;;;;5091963;28;20091;-68
2022/03/04 12:07:56;;;;;;;;;;;;;;;;;;5091314;28;20086;-68
2022/03/04 12:10:22;;;;;;;5.38;3.65;;;;;;;;;;5090197;28;20338;-68
2022/03/04 12:13:01;;;;;;;7.40;4.10;;;;;;;;;;5072313;28;20105;-68
2022/03/04 12:15:27;;;;;;;6.45;3.78;;;;;;;;;;5072034;28;20234;-67
2022/03/04 12:18:03;;;;;;;5.00;3.38;;;;;;;;;;5089865;28;20471;-69
2022/03/04 12:20:50;;;;;;;5.68;3.80;;;;;;;;;;5072571;28;20452;-69
2022/03/04 12:23:18;;;;;;;7.35;3.30;;;;;;;;;;5059416;28;20472;-68
2022/03/04 12:25:56;;;;;;;4.85;3.30;;;;;;;;;;5090628;28;20474;-68
2022/03/04 12:28:24;;;;;;;5.77;4.10;;;;;;;;;;5072448;28;20098;-67
2022/03/04 12:31:01;;;;;;;4.82;3.33;;;;;;;;;;5090546;28;20044;-67
2022/03/04 12:33:28;;;;;;;5.70;3.67;;;;;;;;;;5072275;28;20052;-67
2022/03/04 12:35:57;;;;;;;6.13;3.67;;;;;;;;;;5089968;28;20129;-67
2022/03/04 12:38:24;;;;;;;5.15;3.30;;;;;;;;;;5072262;28;20097;-67
2022/03/04 12:40:50;;;;;;;5.32;3.58;;;;;;;;;;5090539;28;20047;-67
2022/03/04 12:43:16;;;;;;;5.68;3.58;;;;;;;;;;5071538;28;20048;-68
2022/03/04 12:45:42;;;;;;;10.05;3.90;;;;;;;;;;5086562;28;20044;-69
2022/03/04 12:48:09;;;;;;;5.20;3.10;;;;;;;;;;5088161;28;20058;-69
2022/03/04 12:50:35;;;;;;;7.43;3.35;;;;;;;;;;5071832;28;20540;-69
2022/03/04 12:53:20;;;;;;;7.70;3.47;;;;;;;;;;5089986;28;20051;-69
2022/03/04 12:55:50;;;;;;;4.28;3.15;;;;;;;;;;5090102;28;20394;-69
2022/03/04 12:58:16;;;;;;;7.07;3.03;;;;;;;;;;5089921;28;20056;-69
2022/03/04 13:00:42;;;;;;;5.45;3.60;;;;;;;;;;5071724;28;20040;-70
2022/03/04 13:03:19;;;;;;;4.22;3.03;;;;;;;;;;5071229;28;20052;-69
2022/03/04 13:05:45;;;;;;;5.20;3.28;;;;;;;;;;5055020;28;20064;-69
2022/03/04 13:08:14;;;;;;;4.72;3.17;;;;;;;;;;5089830;28;20051;-70
2022/03/04 13:10:40;;;;;;;5.38;3.08;;;;;;;;;;5055030;28;20074;-70
2022/03/04 13:13:06;;;;;;;5.38;3.33;;;;;;;;;;5089490;28;20044;-69
2022/03/04 13:15:33;;;;;;;5.53;2.85;;;;;;;;;;5071555;28;20087;-69
2022/03/04 13:18:00;;;;;;;4.75;3.20;;;;;;;;;;5088961;28;20047;-69
2022/03/04 13:20:26;;;;;;;7.47;3.30;;;;;;;;;;5088940;28;20123;-70
2022/03/04 13:23:03;;;;;;;6.70;3.05;;;;;;;;;;5069374;28;20056;-69
2022/03/04 13:25:31;;;;;;;5.55;2.88;;;;;;;;;;5071376;28;20048;-70
2022/03/04 13:27:57;;;;;;;6.25;2.97;;;;;;;;;;5089323;28;20048;-70
2022/03/04 13:30:24;;;;;;;4.75;3.15;;;;;;;;;;5070618;28;20131;-70
2022/03/04 13:32:54;;;;;;;8.02;3.20;;;;;;;;;;5070714;28;20413;-69
2022/03/04 13:35:21;;;;;;;4.78;3.40;;;;;;;;;;5071171;28;20087;-69
2022/03/04 13:37:47;;;;;;;4.53;3.40;;;;;;;;;;5070700;28;20208;-69
2022/03/04 13:40:13;;;;;;;4.55;3.10;;;;;;;;;;5071055;28;20044;-69
2022/03/04 13:42:44;;;;;;;3.97;2.80;;;;;;;;;;5089080;28;20044;-69
2022/03/04 13:45:11;;;;;;;6.80;3.13;;;;;;;;;;5088365;28;20044;-69
2022/03/04 13:47:39;;;;;;;5.25;3.40;;;;;;;;;;5070691;28;20088;-69
2022/03/04 13:50:23;;;;;;;5.90;3.10;;;;;;;;;;5088969;28;20043;-69
2022/03/04 13:52:52;;;;;;;7.72;3.65;;;;;;;;;;5088947;28;20040;-70
2022/03/04 13:55:18;;;;;;;5.95;3.13;;;;;;;;;;5070520;28;20059;-70
2022/03/04 13:57:44;;;;;;;3.95;2.60;;;;;;;;;;5070843;28;20044;-69
2022/03/04 14:00:14;;;;;;;3.80;2.60;;;;;;;;;;5088596;28;20048;-69
2022/03/04 14:02:47;;;;;;;5.57;3.00;;;;;;;;;;5087030;28;20047;-70
2022/03/04 14:05:33;;;;;;;6.57;2.90;;;;;;;;;;5087719;28;20055;-70
2022/03/04 14:08:08;;;;;;;4.28;3.05;;;;;;;;;;5077703;28;20055;-69
2022/03/04 14:10:35;;;;;;;4.90;3.03;;;;;;;;;;5088397;28;20135;-67
2022/03/04 14:13:03;;;;;;;5.82;3.05;;;;;;;;;;5087976;28;20172;-68
2022/03/04 14:15:29;;;;;;;5.00;3.10;;;;;;;;;;5070370;28;20481;-68
2022/03/04 14:17:56;;;;;;;4.45;3.17;;;;;;;;;;5088169;28;20120;-68
2022/03/04 14:20:23;;;;;;;5.63;3.03;;;;;;;;;;5070780;28;20089;-69
2022/03/04 14:22:49;;;;;;;5.32;3.13;;;;;;;;;;5088474;28;20348;-68
2022/03/04 14:25:16;;;;;;;5.05;3.10;;;;;;;;;;5087793;28;20131;-69
2022/03/04 14:27:43;;;;;;;5.10;3.42;;;;;;;;;;5088609;28;20123;-69
2022/03/04 14:30:14;;;;;;;4.68;3.08;;;;;;;;;;5086989;28;20048;-70
2022/03/04 14:32:41;;;;;;;4.18;3.03;;;;;;;;;;5088031;28;20058;-70
2022/03/04 14:35:07;;;;;;;5.05;2.92;;;;;;;;;;5072145;28;20512;-71
2022/03/04 14:37:33;;;;;;;5.43;3.40;;;;;;;;;;5091402;28;20055;-71
2022/03/04 14:39:59;;;;;;;5.65;3.28;;;;;;;;;;5091960;28;20068;-69